createdAt,value
2022-12-01T00:02:01.542Z,5.59
2022-12-01T00:04:33.141Z,5.52
2022-12-01T00:07:04.947Z,5.42
2022-12-01T00:09:36.438Z,5.24
2022-12-01T00:12:07.949Z,5.43
2022-12-01T00:14:39.498Z,5.38
2022-12-01T00:17:11.006Z,5.13
2022-12-01T00:19:42.554Z,5.28
2022-12-01T00:22:14.022Z,5.27
2022-12-01T00:24:46.731Z,5.23
2022-12-01T00:27:18.296Z,5.32
2022-12-01T00:29:50.069Z,5.16
2022-12-01T00:32:21.858Z,5.36
2022-12-01T00:34:53.427Z,5.46
2022-12-01T00:37:24.977Z,5.43
2022-12-01T00:39:57.187Z,5.45
2022-12-01T00:42:28.687Z,5.48
2022-12-01T00:45:00.244Z,5.33
2022-12-01T00:47:31.793Z,5.21
2022-12-01T00:50:03.966Z,5.25
2022-12-01T00:52:35.593Z,5.48
2022-12-01T00:55:07.669Z,5.37
2022-12-01T00:57:39.209Z,5.28
2022-12-01T01:00:11.399Z,5.26
2022-12-01T01:02:44.257Z,5.21
2022-12-01T01:05:15.869Z,5.21
2022-12-01T01:07:47.470Z,5.16
2022-12-01T01:10:19.007Z,5.34
2022-12-01T01:12:50.548Z,5.32
2022-12-01T01:15:23.751Z,5.40
2022-12-01T01:17:55.267Z,5.23
2022-12-01T01:20:26.981Z,5.31
2022-12-01T01:22:58.595Z,5.28
2022-12-01T01:25:32.125Z,5.35
2022-12-01T01:28:03.808Z,5.34
2022-12-01T01:30:38.920Z,5.40
2022-12-01T01:33:10.529Z,5.47
2022-12-01T01:35:42.061Z,5.41
2022-12-01T01:38:13.971Z,5.46
2022-12-01T01:40:47.562Z,5.62
2022-12-01T01:43:47.068Z,5.64
2022-12-01T01:46:30.816Z,5.61
2022-12-01T01:49:13.072Z,5.40
2022-12-01T01:51:53.755Z,5.42
2022-12-01T01:54:33.526Z,5.56
2022-12-01T01:57:09.764Z,5.46
2022-12-01T01:59:47.755Z,5.37
2022-12-01T02:02:19.602Z,5.52
2022-12-01T02:05:01.558Z,5.53
2022-12-01T02:07:33.330Z,5.56
2022-12-01T02:10:08.525Z,5.48
2022-12-01T02:13:01.369Z,5.57
2022-12-01T02:16:11.201Z,5.37
2022-12-01T02:18:48.485Z,5.39
2022-12-01T02:21:29.436Z,5.34
2022-12-01T02:24:04.013Z,5.41
2022-12-01T02:27:02.494Z,5.32
2022-12-01T02:29:39.837Z,5.45
2022-12-01T02:32:29.764Z,5.46
2022-12-01T02:35:27.217Z,5.46
2022-12-01T02:38:28.400Z,5.44
2022-12-01T02:41:02.715Z,5.44
2022-12-01T02:43:53.663Z,5.49
2022-12-01T02:46:34.014Z,5.50
2022-12-01T02:49:32.137Z,5.62
2022-12-01T02:52:06.630Z,5.42
2022-12-01T02:54:39.014Z,5.51
2022-12-01T02:57:15.041Z,5.58
2022-12-01T02:59:52.077Z,5.52
2022-12-01T03:02:26.640Z,5.52
2022-12-01T03:05:20.921Z,5.60
2022-12-01T03:08:26.795Z,5.44
2022-12-01T03:11:01.234Z,5.42
2022-12-01T03:13:54.047Z,5.38
2022-12-01T03:17:04.264Z,5.47
2022-12-01T03:19:44.163Z,5.54
2022-12-01T03:22:26.471Z,5.53
2022-12-01T03:25:02.320Z,5.56
2022-12-01T03:27:41.785Z,5.57
2022-12-01T03:30:24.674Z,5.51
2022-12-01T03:33:03.899Z,5.80
2022-12-01T03:35:56.175Z,5.81
2022-12-01T03:38:30.161Z,6.13
2022-12-01T03:41:17.237Z,5.78
2022-12-01T03:43:59.503Z,5.69
2022-12-01T03:46:57.633Z,5.79
2022-12-01T03:49:30.403Z,5.70
2022-12-01T03:52:53.383Z,5.75
2022-12-01T03:55:29.213Z,5.70
2022-12-01T03:58:12.736Z,5.89
2022-12-01T04:00:46.389Z,5.79
2022-12-01T04:03:20.496Z,5.86
2022-12-01T04:05:52.242Z,5.75
2022-12-01T04:08:24.152Z,5.79
2022-12-01T04:10:55.699Z,5.71
2022-12-01T04:13:27.798Z,5.84
2022-12-01T04:15:59.455Z,5.59
2022-12-01T04:18:31.252Z,5.65
2022-12-01T04:21:02.799Z,5.84
2022-12-01T04:23:34.343Z,5.74
2022-12-01T04:26:07.338Z,5.64
2022-12-01T04:28:41.610Z,5.71
2022-12-01T04:31:13.191Z,5.82
2022-12-01T04:33:44.752Z,5.63
2022-12-01T04:36:16.321Z,5.40
2022-12-01T04:38:47.920Z,5.41
2022-12-01T04:41:19.850Z,5.49
2022-12-01T04:43:55.300Z,5.39
2022-12-01T04:46:26.961Z,5.68
2022-12-01T04:48:58.501Z,5.93
2022-12-01T04:51:30.075Z,5.71
2022-12-01T04:54:02.902Z,5.65
2022-12-01T04:56:34.417Z,5.42
2022-12-01T04:59:05.913Z,5.57
2022-12-01T05:01:38.609Z,5.38
2022-12-01T05:04:14.607Z,5.45
2022-12-01T05:06:46.131Z,5.52
2022-12-01T05:09:18.061Z,5.50
2022-12-01T05:11:49.637Z,5.50
2022-12-01T05:14:21.140Z,5.31
2022-12-01T05:16:52.831Z,5.66
2022-12-01T05:19:24.398Z,5.74
2022-12-01T05:21:55.911Z,5.47
2022-12-01T05:24:27.480Z,5.94
2022-12-01T05:26:59.018Z,5.66
2022-12-01T05:29:30.580Z,5.53
2022-12-01T05:32:02.204Z,5.54
2022-12-01T05:34:33.786Z,5.53
2022-12-01T05:37:05.421Z,5.55
2022-12-01T05:39:36.953Z,5.87
2022-12-01T05:42:08.481Z,5.52
2022-12-01T05:44:40.027Z,5.64
2022-12-01T05:47:11.556Z,5.70
2022-12-01T05:49:43.087Z,5.52
2022-12-01T05:52:14.724Z,5.71
2022-12-01T05:54:46.254Z,5.72
2022-12-01T05:57:17.805Z,5.83
2022-12-01T05:59:49.448Z,5.85
2022-12-01T06:02:21.270Z,5.44
2022-12-01T06:04:53.521Z,5.69
2022-12-01T06:07:25.191Z,5.72
2022-12-01T06:09:56.722Z,6.01
2022-12-01T06:12:28.655Z,5.73
2022-12-01T06:15:00.170Z,5.63
2022-12-01T06:17:34.635Z,5.58
2022-12-01T06:20:11.044Z,5.47
2022-12-01T06:22:42.801Z,5.41
2022-12-01T06:25:14.289Z,5.43
2022-12-01T06:27:45.886Z,5.61
2022-12-01T06:30:17.594Z,5.40
2022-12-01T06:32:49.108Z,5.33
2022-12-01T06:35:20.638Z,5.58
2022-12-01T06:37:53.553Z,5.54
2022-12-01T06:40:25.043Z,5.47
2022-12-01T06:43:00.587Z,5.35
2022-12-01T06:45:32.532Z,5.31
2022-12-01T06:48:04.289Z,5.38
2022-12-01T06:50:35.865Z,5.33
2022-12-01T06:53:07.451Z,5.55
2022-12-01T06:55:39.420Z,5.68
2022-12-01T06:58:11.084Z,5.46
2022-12-01T07:00:46.376Z,5.40
2022-12-01T07:03:20.500Z,5.25
2022-12-01T07:05:59.841Z,5.50
2022-12-01T07:08:32.212Z,5.13
2022-12-01T07:11:07.516Z,5.18
2022-12-01T07:13:40.476Z,5.26
2022-12-01T07:16:12.760Z,5.34
2022-12-01T07:18:44.379Z,5.14
2022-12-01T07:21:16.816Z,5.27
2022-12-01T07:23:48.368Z,5.46
2022-12-01T07:26:19.841Z,5.40
2022-12-01T07:28:52.906Z,5.52
2022-12-01T07:31:24.480Z,5.32
2022-12-01T07:33:56.048Z,5.53
2022-12-01T07:36:27.672Z,5.41
2022-12-01T07:38:59.203Z,5.14
2022-12-01T07:41:30.737Z,5.32
2022-12-01T07:44:02.977Z,5.18
2022-12-01T07:46:34.642Z,5.17
2022-12-01T07:49:08.050Z,5.11
2022-12-01T07:51:39.582Z,5.46
2022-12-01T07:54:11.595Z,5.19
2022-12-01T07:56:43.146Z,5.37
2022-12-01T07:59:14.633Z,5.39
2022-12-01T08:01:46.212Z,5.41
2022-12-01T08:04:17.755Z,5.45
2022-12-01T08:06:49.283Z,5.14
2022-12-01T08:09:20.785Z,5.21
2022-12-01T08:11:52.303Z,5.41
2022-12-01T08:14:23.868Z,5.62
2022-12-01T08:16:55.365Z,5.54
2022-12-01T08:19:26.861Z,5.52
2022-12-01T08:21:58.433Z,5.44
2022-12-01T08:24:29.968Z,5.62
2022-12-01T08:27:01.485Z,5.61
2022-12-01T08:29:32.989Z,5.76
2022-12-01T08:32:04.655Z,5.66
2022-12-01T08:34:36.359Z,5.82
2022-12-01T08:37:08.301Z,5.68
2022-12-01T08:39:39.868Z,5.78
2022-12-01T08:42:11.523Z,5.73
2022-12-01T08:44:43.166Z,5.76
2022-12-01T08:47:18.693Z,5.92
2022-12-01T08:49:50.726Z,7.81
2022-12-01T08:52:22.456Z,6.76
2022-12-01T08:54:53.971Z,6.34
2022-12-01T08:57:25.627Z,6.06
2022-12-01T08:59:57.817Z,6.12
2022-12-01T09:02:29.458Z,6.15
2022-12-01T09:05:01.082Z,6.24
2022-12-01T09:07:33.246Z,6.26
2022-12-01T09:10:05.612Z,6.51
2022-12-01T09:12:37.149Z,6.52
2022-12-01T09:15:09.402Z,6.44
2022-12-01T09:17:40.930Z,6.21
2022-12-01T09:20:12.831Z,6.28
2022-12-01T09:22:44.350Z,6.38
2022-12-01T09:25:15.916Z,6.51
2022-12-01T09:27:47.407Z,6.44
2022-12-01T09:30:19.036Z,6.38
2022-12-01T09:32:50.554Z,6.61
2022-12-01T09:35:23.608Z,6.71
2022-12-01T09:37:55.271Z,6.86
2022-12-01T09:40:33.978Z,6.87
2022-12-01T09:43:27.619Z,6.73
2022-12-01T09:46:05.875Z,6.70
2022-12-01T09:48:46.625Z,7.08
2022-12-01T09:51:26.135Z,6.82
2022-12-01T09:54:00.910Z,6.60
2022-12-01T09:56:42.484Z,6.55
2022-12-01T09:59:26.406Z,6.54
2022-12-01T10:02:02.727Z,6.95
2022-12-01T10:04:39.774Z,6.93
2022-12-01T10:07:20.441Z,6.81
2022-12-01T10:10:01.375Z,6.83
2022-12-01T10:12:35.432Z,7.12
2022-12-01T10:15:13.101Z,6.87
2022-12-01T10:18:22.415Z,6.81
2022-12-01T10:21:31.267Z,6.76
2022-12-01T10:24:09.626Z,6.96
2022-12-01T10:26:59.151Z,7.09
2022-12-01T10:29:48.731Z,7.19
2022-12-01T10:32:29.067Z,7.32
2022-12-01T10:35:00.820Z,7.45
2022-12-01T10:37:32.756Z,7.32
2022-12-01T10:40:04.915Z,7.65
2022-12-01T10:42:44.146Z,7.55
2022-12-01T10:45:18.631Z,7.66
2022-12-01T10:48:08.448Z,7.59
2022-12-01T10:50:40.097Z,7.33
2022-12-01T10:53:33.440Z,7.52
2022-12-01T10:56:12.892Z,7.64
2022-12-01T10:58:52.365Z,7.38
2022-12-01T11:01:27.786Z,7.45
2022-12-01T11:04:34.475Z,7.37
2022-12-01T11:07:06.259Z,7.56
2022-12-01T11:09:37.858Z,7.60
2022-12-01T11:12:17.761Z,7.60
2022-12-01T11:14:56.324Z,7.50
2022-12-01T11:17:58.421Z,7.49
2022-12-01T11:20:38.975Z,7.64
2022-12-01T11:23:19.617Z,7.64
2022-12-01T11:26:03.050Z,7.66
2022-12-01T11:28:36.463Z,7.61
2022-12-01T11:31:10.686Z,7.35
2022-12-01T11:33:55.061Z,7.06
2022-12-01T11:36:31.703Z,7.18
2022-12-01T11:39:04.907Z,7.46
2022-12-01T11:41:40.961Z,7.49
2022-12-01T11:44:49.791Z,7.58
2022-12-01T11:47:23.697Z,7.49
2022-12-01T11:50:00.057Z,7.58
2022-12-01T11:52:46.306Z,7.61
2022-12-01T11:55:24.470Z,7.52
2022-12-01T11:58:04.216Z,7.61
2022-12-01T12:00:50.469Z,7.59
2022-12-01T12:03:39.151Z,7.95
2022-12-01T12:09:34.481Z,7.49
2022-12-01T12:12:40.067Z,7.90
2022-12-01T12:18:56.431Z,7.81
2022-12-01T12:21:38.660Z,7.89
2022-12-01T12:24:35.236Z,8.00
2022-12-01T12:27:09.980Z,7.65
2022-12-01T12:29:41.481Z,7.87
2022-12-01T12:32:25.284Z,7.66
2022-12-01T12:35:25.962Z,7.66
2022-12-01T12:38:19.276Z,8.12
2022-12-01T12:41:06.420Z,7.67
2022-12-01T12:43:48.317Z,7.76
2022-12-01T12:46:41.857Z,8.08
2022-12-01T12:49:29.730Z,7.96
2022-12-01T12:52:16.115Z,7.88
2022-12-01T12:54:58.745Z,7.98
2022-12-01T12:57:37.921Z,7.62
2022-12-01T13:00:17.087Z,7.83
2022-12-01T13:02:56.321Z,7.91
2022-12-01T13:05:33.630Z,7.79
2022-12-01T13:08:19.463Z,8.30
2022-12-01T13:11:10.024Z,8.30
2022-12-01T13:13:53.792Z,7.80
2022-12-01T13:16:35.831Z,7.84
2022-12-01T13:19:28.848Z,8.06
2022-12-01T13:22:02.083Z,7.67
2022-12-01T13:24:34.127Z,7.91
2022-12-01T13:27:17.059Z,7.83
2022-12-01T13:29:52.594Z,7.86
2022-12-01T13:32:35.786Z,8.11
2022-12-01T13:35:27.086Z,7.74
2022-12-01T13:38:17.529Z,7.87
2022-12-01T13:40:50.080Z,7.44
2022-12-01T13:43:23.301Z,7.45
2022-12-01T13:46:03.204Z,7.15
2022-12-01T13:48:37.741Z,7.43
2022-12-01T13:51:09.393Z,7.36
2022-12-01T13:54:04.364Z,7.24
2022-12-01T13:56:46.796Z,7.19
2022-12-01T13:59:41.816Z,7.34
2022-12-01T14:02:21.121Z,7.28
2022-12-01T14:04:52.848Z,7.08
2022-12-01T14:07:34.872Z,7.63
2022-12-01T14:10:24.171Z,7.36
2022-12-01T14:13:01.612Z,7.25
2022-12-01T14:15:38.191Z,7.31
2022-12-01T14:18:29.919Z,7.44
2022-12-01T14:21:06.038Z,7.40
2022-12-01T14:24:01.035Z,7.40
2022-12-01T14:26:44.930Z,7.86
2022-12-01T14:29:32.622Z,7.76
2022-12-01T14:32:10.246Z,7.70
2022-12-01T14:34:43.188Z,7.56
2022-12-01T14:37:20.224Z,7.52
2022-12-01T14:40:11.297Z,7.70
2022-12-01T14:42:52.184Z,7.34
2022-12-01T14:45:38.482Z,7.69
2022-12-01T14:48:18.520Z,7.54
2022-12-01T14:50:58.502Z,7.86
2022-12-01T14:53:41.751Z,7.83
2022-12-01T14:56:19.273Z,7.11
2022-12-01T14:58:58.682Z,7.52
2022-12-01T15:01:35.356Z,7.72
2022-12-01T15:04:07.169Z,7.50
2022-12-01T15:06:38.984Z,7.46
2022-12-01T15:09:36.836Z,7.49
2022-12-01T15:12:27.152Z,7.36
2022-12-01T15:14:58.801Z,7.45
2022-12-01T15:17:33.673Z,7.06
2022-12-01T15:20:35.702Z,7.29
2022-12-01T15:23:16.474Z,7.08
2022-12-01T15:25:48.020Z,7.23
2022-12-01T15:28:28.644Z,7.32
2022-12-01T15:31:09.390Z,7.01
2022-12-01T15:33:51.910Z,7.46
2022-12-01T15:36:24.924Z,7.35
2022-12-01T15:39:00.985Z,7.00
2022-12-01T15:41:41.327Z,7.03
2022-12-01T15:44:34.261Z,6.66
2022-12-01T15:47:43.078Z,6.34
2022-12-01T15:50:26.826Z,6.75
2022-12-01T15:53:02.496Z,6.97
2022-12-01T15:55:37.977Z,6.79
2022-12-01T15:58:27.089Z,6.70
2022-12-01T16:01:07.156Z,7.08
2022-12-01T16:03:56.597Z,6.64
2022-12-01T16:06:33.461Z,6.40
2022-12-01T16:09:23.713Z,6.60
2022-12-01T16:12:14.287Z,6.92
2022-12-01T16:15:00.630Z,7.04
2022-12-01T16:17:53.163Z,6.70
2022-12-01T16:20:26.693Z,6.73
2022-12-01T16:23:09.637Z,6.27
2022-12-01T16:25:45.505Z,6.57
2022-12-01T16:28:23.921Z,6.68
2022-12-01T16:30:55.634Z,7.04
2022-12-01T16:33:29.023Z,7.36
2022-12-01T16:36:01.110Z,7.07
2022-12-01T16:38:32.678Z,6.99
2022-12-01T16:41:23.759Z,6.42
2022-12-01T16:44:26.596Z,6.48
2022-12-01T16:49:19.073Z,6.53
2022-12-01T16:51:56.051Z,6.78
2022-12-01T16:54:28.473Z,6.79
2022-12-01T16:57:00.128Z,7.31
2022-12-01T16:59:32.104Z,7.01
2022-12-01T17:02:03.705Z,6.70
2022-12-01T17:04:35.284Z,6.68
2022-12-01T17:07:06.822Z,6.87
2022-12-01T17:09:38.369Z,6.74
2022-12-01T17:12:09.872Z,7.07
2022-12-01T17:14:41.363Z,7.15
2022-12-01T17:17:12.949Z,6.98
2022-12-01T17:19:44.503Z,7.27
2022-12-01T17:22:16.020Z,7.00
2022-12-01T17:24:47.777Z,6.74
2022-12-01T17:27:19.430Z,6.89
2022-12-01T17:29:51.098Z,6.96
2022-12-01T17:32:22.607Z,6.81
2022-12-01T17:34:54.540Z,6.73
2022-12-01T17:37:26.324Z,6.83
2022-12-01T17:39:57.906Z,6.94
2022-12-01T17:42:34.501Z,6.93
2022-12-01T17:45:15.658Z,6.76
2022-12-01T17:47:47.413Z,6.89
2022-12-01T17:50:18.981Z,6.91
2022-12-01T17:52:50.503Z,6.72
2022-12-01T17:55:21.997Z,6.44
2022-12-01T17:57:53.531Z,6.49
2022-12-01T18:00:25.795Z,6.79
2022-12-01T18:02:57.447Z,6.65
2022-12-01T18:05:29.086Z,6.95
2022-12-01T18:08:00.779Z,6.90
2022-12-01T18:10:32.471Z,6.82
2022-12-01T18:13:03.989Z,6.54
2022-12-01T18:15:35.535Z,6.45
2022-12-01T18:18:07.109Z,6.45
2022-12-01T18:20:42.929Z,6.22
2022-12-01T18:23:14.503Z,6.11
2022-12-01T18:25:46.026Z,6.37
2022-12-01T18:28:17.540Z,6.37
2022-12-01T18:30:49.102Z,6.13
2022-12-01T18:33:20.648Z,6.32
2022-12-01T18:35:52.186Z,5.97
2022-12-01T18:38:23.716Z,5.84
2022-12-01T18:40:59.916Z,5.83
2022-12-01T18:43:32.595Z,6.04
2022-12-01T18:46:06.236Z,6.10
2022-12-01T18:48:38.022Z,5.88
2022-12-01T18:51:10.772Z,6.05
2022-12-01T18:53:42.870Z,6.24
2022-12-01T18:56:15.510Z,6.05
2022-12-01T18:58:47.186Z,5.90
2022-12-01T19:01:32.542Z,5.87
2022-12-01T19:04:06.229Z,5.78
2022-12-01T19:06:40.166Z,5.70
2022-12-01T19:09:14.255Z,5.65
2022-12-01T19:11:46.700Z,5.84
2022-12-01T19:14:18.849Z,6.18
2022-12-01T19:16:50.915Z,6.15
2022-12-01T19:19:23.140Z,6.34
2022-12-01T19:21:54.724Z,6.25
2022-12-01T19:24:26.343Z,5.94
2022-12-01T19:26:57.886Z,5.96
2022-12-01T19:29:29.370Z,6.12
2022-12-01T19:32:01.066Z,5.67
2022-12-01T19:34:32.748Z,6.09
2022-12-01T19:37:06.056Z,5.87
2022-12-01T19:39:38.219Z,6.08
2022-12-01T19:42:09.733Z,6.03
2022-12-01T19:44:41.354Z,6.08
2022-12-01T19:47:14.683Z,6.18
2022-12-01T19:49:49.260Z,6.24
2022-12-01T19:52:20.788Z,6.03
2022-12-01T19:54:53.109Z,6.15
2022-12-01T19:57:24.800Z,6.20
2022-12-01T19:59:56.306Z,6.06
2022-12-01T20:02:29.511Z,6.39
2022-12-01T20:05:01.204Z,6.09
2022-12-01T20:07:32.783Z,5.99
2022-12-01T20:10:05.116Z,5.95
2022-12-01T20:12:36.655Z,6.05
2022-12-01T20:15:08.725Z,6.11
2022-12-01T20:17:40.468Z,6.15
2022-12-01T20:20:12.441Z,6.35
2022-12-01T20:22:44.218Z,6.26
2022-12-01T20:25:15.896Z,6.41
2022-12-01T20:27:47.442Z,6.47
2022-12-01T20:30:19.052Z,6.52
2022-12-01T20:32:50.557Z,6.72
2022-12-01T20:35:22.122Z,6.61
2022-12-01T20:37:53.717Z,6.53
2022-12-01T20:40:25.418Z,6.29
2022-12-01T20:42:56.918Z,6.51
2022-12-01T20:45:28.657Z,6.26
2022-12-01T20:48:00.186Z,5.75
2022-12-01T20:50:32.461Z,5.95
2022-12-01T20:53:04.108Z,6.00
2022-12-01T20:55:36.655Z,5.96
2022-12-01T20:58:08.633Z,5.82
2022-12-01T21:00:42.513Z,5.95
2022-12-01T21:03:14.718Z,6.08
2022-12-01T21:05:46.240Z,5.64
2022-12-01T21:08:17.792Z,5.52
2022-12-01T21:10:49.345Z,5.78
2022-12-01T21:13:24.100Z,6.04
2022-12-01T21:16:01.881Z,5.66
2022-12-01T21:18:42.045Z,5.65
2022-12-01T21:21:25.751Z,5.46
2022-12-01T21:24:12.820Z,5.22
2022-12-01T21:27:14.787Z,5.19
2022-12-01T21:29:49.568Z,5.29
2022-12-01T21:32:31.163Z,5.39
2022-12-01T21:35:29.170Z,5.43
2022-12-01T21:38:06.994Z,5.30
2022-12-01T21:40:42.240Z,5.41
2022-12-01T21:43:24.924Z,5.58
2022-12-01T21:46:10.180Z,5.37
2022-12-01T21:48:42.841Z,5.55
2022-12-01T21:51:14.346Z,5.57
2022-12-01T21:53:47.288Z,5.99
2022-12-01T21:56:27.266Z,5.77
2022-12-01T21:59:10.863Z,5.75
2022-12-01T22:01:42.520Z,5.69
2022-12-01T22:04:28.809Z,5.98
2022-12-01T22:07:00.395Z,5.87
2022-12-01T22:09:35.265Z,6.15
2022-12-01T22:12:26.031Z,6.01
2022-12-01T22:15:01.477Z,6.06
2022-12-01T22:17:33.007Z,5.94
2022-12-01T22:20:21.453Z,5.67
2022-12-01T22:22:53.020Z,5.91
2022-12-01T22:25:26.839Z,5.94
2022-12-01T22:27:58.743Z,5.78
2022-12-01T22:30:30.235Z,6.11
2022-12-01T22:33:05.141Z,5.62
2022-12-01T22:35:48.380Z,5.89
2022-12-01T22:38:25.028Z,6.01
2022-12-01T22:41:02.627Z,6.02
2022-12-01T22:43:57.166Z,6.23
2022-12-01T22:46:37.960Z,6.19
2022-12-01T22:49:23.086Z,5.93
2022-12-01T22:52:00.260Z,5.92
2022-12-01T22:54:37.374Z,5.73
2022-12-01T22:57:26.173Z,6.13
2022-12-01T23:00:01.521Z,6.00
2022-12-01T23:02:34.961Z,6.17
2022-12-01T23:05:25.565Z,6.16
2022-12-01T23:07:57.666Z,5.61
2022-12-01T23:10:33.627Z,5.99
2022-12-01T23:13:19.595Z,6.05
2022-12-01T23:15:53.143Z,6.09
2022-12-01T23:18:29.137Z,6.10
2022-12-01T23:21:02.046Z,6.15
2022-12-01T23:23:36.830Z,6.24
2022-12-01T23:26:08.948Z,6.16
2022-12-01T23:28:40.520Z,6.13
2022-12-01T23:31:12.117Z,5.88
2022-12-01T23:33:43.795Z,6.04
2022-12-01T23:36:16.611Z,6.25
2022-12-01T23:38:52.743Z,6.41
2022-12-01T23:41:41.719Z,6.38
2022-12-01T23:44:21.104Z,6.42
2022-12-01T23:46:56.501Z,6.38
2022-12-01T23:49:33.039Z,6.22
2022-12-01T23:52:13.319Z,6.27
2022-12-01T23:54:45.037Z,5.91
2022-12-01T23:57:23.468Z,6.24
2022-12-01T23:59:59.708Z,5.87
